»·PEaware :: PHKIM KJAC-KEMM

PHKIM :: KJAC-KEMM

FLIGHT INFORMATION

Flight Status: Arrived
Operator: Unknown
More flights by this operator :: More flights under this callsign
Pilot: Kim B. (19519)
Aircraft: BEECH AIRCRAFT A90-E90 KING AIR
(BE9L)
More flights by this aircraft type
Origin: KJAC Jackson Hole
United States
Destination: KEMM Kemmerer Mun
United States
More flights between these airports :: More routes between these airports
Route: +FBR
File this flight plan on PilotEdge
Remarks:
Altitude:
(Current/Filed)
16,000ft
Speed:
(Current/Filed)
190kts
Departed: 29-Oct-18 08:32 PM
Arrived: 29-Oct-18 09:14 PM
Distance/Time
Traveled:
107nm/0:42
Distance/Time
To Go:
Arrived

Flight Plot

Page will automatically refresh every two minutes.

Flight plan parsing failed; only flown route is shown


Map Options




Map Legend


Flown Route
Filed Route
Departure Airport
Arrival Airport
Navaid (VOR, NDB)
Fix

Horizontal Profiles

Position Reports

Time Latitude Longitude Heading Altitude Ground
Speed
29-Oct-18 20:17 43.600707 -110.738675 107 6424ft 0kts
29-Oct-18 20:18 43.600108 -110.738684 197 6424ft 11kts
29-Oct-18 20:19 43.599931 -110.739075 286 6424ft 0kts
29-Oct-18 20:20 43.600707 -110.738675 107 6424ft 0kts
29-Oct-18 20:21 43.600707 -110.738675 107 6424ft 0kts
29-Oct-18 20:21 43.600707 -110.738675 107 6424ft 0kts
29-Oct-18 20:23 43.600707 -110.738675 107 6424ft 0kts
29-Oct-18 20:23 43.600707 -110.738675 107 6424ft 0kts
29-Oct-18 20:25 43.600707 -110.738675 107 6424ft 0kts
29-Oct-18 20:26 43.600707 -110.738675 107 6424ft 0kts
29-Oct-18 20:26 43.600707 -110.738675 107 6424ft 0kts
29-Oct-18 20:27 43.600707 -110.738675 107 6424ft 0kts
29-Oct-18 20:28 43.600707 -110.738675 107 6424ft 0kts
29-Oct-18 20:29 43.600707 -110.738675 107 6424ft 0kts
29-Oct-18 20:30 43.601388 -110.739021 1 6424ft 14kts
29-Oct-18 20:31 43.608417 -110.735627 21 6424ft 32kts
29-Oct-18 20:32 43.614994 -110.732668 318 6424ft 0kts
29-Oct-18 20:33 43.615047 -110.732742 310 6424ft 5kts
29-Oct-18 20:34 43.603121 -110.739940 199 6475ft 121kts
29-Oct-18 20:35 43.565287 -110.765134 206 7389ft 162kts
29-Oct-18 20:36 43.525303 -110.791805 206 8828ft 152kts
29-Oct-18 20:37 43.489874 -110.814746 206 10399ft 131kts
29-Oct-18 20:38 43.460489 -110.833496 206 11918ft 107kts
29-Oct-18 20:39 43.433204 -110.850815 208 12971ft 113kts
29-Oct-18 20:40 43.402385 -110.870507 209 13657ft 142kts
29-Oct-18 20:41 43.364231 -110.894860 209 14073ft 165kts
29-Oct-18 20:42 43.322456 -110.921379 209 14474ft 176kts
29-Oct-18 20:43 43.282280 -110.946803 210 14835ft 182kts
29-Oct-18 20:44 43.237979 -110.974782 210 15222ft 185kts
29-Oct-18 20:45 43.190987 -111.004408 211 15627ft 187kts
29-Oct-18 20:46 43.151643 -111.044799 245 15997ft 177kts
29-Oct-18 20:47 43.130453 -111.090336 242 16009ft 192kts
29-Oct-18 20:48 43.097086 -111.146915 234 16012ft 203kts
29-Oct-18 20:49 43.058767 -111.203924 233 16011ft 207kts
29-Oct-18 20:50 43.019908 -111.261573 233 16010ft 208kts
29-Oct-18 20:51 42.963489 -111.243645 152 16010ft 239kts
29-Oct-18 20:52 42.907300 -111.195153 152 16009ft 240kts
29-Oct-18 20:53 42.852111 -111.145760 152 16007ft 239kts
29-Oct-18 20:54 42.797696 -111.096770 151 16000ft 239kts
29-Oct-18 20:55 42.742932 -111.047474 151 15999ft 242kts
29-Oct-18 20:56 42.686419 -110.996695 151 15999ft 245kts
29-Oct-18 20:57 42.629708 -110.944894 150 15999ft 247kts
29-Oct-18 20:58 42.573267 -110.892540 150 16000ft 248kts
29-Oct-18 20:59 42.511607 -110.859136 174 16001ft 239kts
29-Oct-18 21:00 42.447334 -110.834808 171 16001ft 241kts
29-Oct-18 21:01 42.383256 -110.809714 170 16001ft 241kts
29-Oct-18 21:02 42.318052 -110.784402 169 15208ft 247kts
29-Oct-18 21:03 42.253432 -110.759228 169 14013ft 236kts
29-Oct-18 21:04 42.191873 -110.735379 168 13014ft 221kts
29-Oct-18 21:05 42.138284 -110.714400 169 12999ft 186kts
29-Oct-18 21:06 42.090778 -110.695967 169 13000ft 172kts
29-Oct-18 21:07 42.045981 -110.678593 166 13000ft 166kts
29-Oct-18 21:08 42.006757 -110.644460 150 13002ft 167kts
29-Oct-18 21:09 41.966714 -110.614460 162 13003ft 163kts
29-Oct-18 21:10 41.924854 -110.590476 162 12933ft 168kts
29-Oct-18 21:11 41.881450 -110.570046 174 11779ft 161kts
29-Oct-18 21:12 41.838001 -110.560730 187 10436ft 161kts
29-Oct-18 21:13 41.795323 -110.568002 194 8861ft 152kts
29-Oct-18 21:14 41.778070 -110.544088 25 8380ft 91kts
29-Oct-18 21:15 41.805903 -110.554561 344 7419ft 98kts
29-Oct-18 21:16 41.820260 -110.557051 33 7275ft 17kts
29-Oct-18 21:17 41.820490 -110.556187 86 7275ft 0kts
29-Oct-18 21:18 41.821187 -110.555939 64 7275ft 2kts
29-Oct-18 21:19 41.821192 -110.555846 83 7275ft 0kts
29-Oct-18 21:20 41.821192 -110.555846 83 7275ft 0kts
29-Oct-18 21:21 41.821192 -110.555846 83 7275ft 0kts
29-Oct-18 21:22 41.821192 -110.555846 83 7275ft 0kts
29-Oct-18 21:23 41.821192 -110.555846 83 7275ft 0kts
29-Oct-18 21:24 41.821192 -110.555846 83 7275ft 0kts
29-Oct-18 21:25 41.821192 -110.555846 83 7275ft 0kts
29-Oct-18 21:26 41.821192 -110.555846 83 7275ft 0kts
29-Oct-18 21:27 41.821192 -110.555846 83 7275ft 0kts
29-Oct-18 21:28 41.821192 -110.555846 83 7275ft 0kts
29-Oct-18 21:29 41.821192 -110.555846 83 7275ft 0kts
29-Oct-18 21:30 41.821192 -110.555846 83 7275ft 0kts

Navigation Log

Ident Type
Flight plan parsing failed, navigation log unavailable